Bernardo Sayao, Brazil
Current Conditions -  °F | °C
As of 7:00 PM on Monday 24 Nov 2014 (Local Time) from SBCJ Reporting Station
Scattered Clouds Scattered Clouds  
Wind Chill: 73°   Ceiling: Unl
Heat Index: 73°   Visibility: 6mi
Dew Point: 68°   Wind: 7mph
Humidity: 83%   Direction: 80°E
Pressure: 29.91"   Gusts: NA
Location:  7.87°S, 48.89°W
Report Text: SBCJ 242200Z 08006KT 9999 SCT023 23/20 Q1013
Loading
Personal Weather Stations






























Interactive Weather Map New forecast layout! Learn more

10-Day Weather Forecast

Advertisements
Track Severe Weather on mobile